• Join FlightAware (Why Join?)
  • Login
  • US Flag 
12:36AM EDT


 

Airport Tracker/Info


-or-


 

Live Flight TrackerFlight Track Log ✈ UAL252 ✈ 18-Jun-2013 ✈ KEWR - KSAN

Flight Track Log - Related Links

Times and Time Zones

All times are in EDT time to prevent confusion due to time zone crossing. See the UAL252 flight status page for this flight to view local times or setup timezone preferences in your user account.

Time Position Orientation Groundspeed Altitude Reporting Facility
EDT Latitude Longitude Course Direction KTS MPH feet Rate Location/Type
09:24AM 40.6333 -74.2000 303° West 221 254 1,600  Level New York TRACON
09:25AM 40.6167 -74.2667 252° West 250 288 3,700 2,640 Climbing New York TRACON
09:26AM 40.7810 -74.5784 284° West  Level FlightAware Approximate
09:26AM 40.6000 -74.3500 255° West 282 325 6,500  Level New York TRACON
09:27AM 40.8090 -74.7222 287° West  Level FlightAware Approximate
09:27AM 40.6500 -74.4333 308° West 274 315 9,600  Level New York TRACON
09:28AM 40.8418 -74.8643 287° West  Level FlightAware Approximate
09:28AM 40.6833 -74.5333 294° West 321 369 10,300  Level New York TRACON
09:29AM 40.8808 -74.9975 323° Northwest  Level FlightAware Approximate
09:30AM 40.9097 -75.1361 303° West  Level FlightAware Approximate
09:30AM 40.7617 -74.7408 297° West 387 445 13,900  Level New York Center
09:31AM 40.8092 -74.8697 296° West 399 459 16,300 2,100 Climbing New York Center
09:32AM 40.8550 -74.9933 296° West 404 465 18,100 1,740 Climbing New York Center
09:33AM 40.9061 -75.1336 296° West 419 482 19,800 1,620 Climbing New York Center
09:34AM 40.8900 -75.2864 262° West 406 467 21,400 1,380 Climbing New York Center
09:35AM 40.8569 -75.4378 254° West 420 483 22,600 1,320 Climbing New York Center
09:36AM 40.8217 -75.5917 253° West 430 495 24,100 1,200 Climbing New York Center
09:37AM 40.7861 -75.7400 252° West 430 495 25,100 1,620 Climbing New York Center
09:38AM 40.7481 -75.8989 253° West 430 495 27,400 1,620 Climbing New York Center
09:39AM 40.7128 -76.0414 252° West 414 476 28,400 840 Climbing New York Center
09:40AM 40.6792 -76.1867 253° West 414 476 29,100 900 Climbing New York Center
09:41AM 40.6744 -76.3339 268° West 404 465 30,200 1,320 Climbing New York Center
09:42AM 40.7006 -76.4811 283° West 404 465 31,800 840 Climbing New York Center
09:43AM 40.7208 -76.6225 281° West 404 465 32,000 60 Climbing New York Center
09:44AM 40.7428 -76.7669 281° West 409 471 32,000  Level New York Center
09:45AM 40.7628 -76.9083 281° West 409 471 32,000  Level New York Center
09:46AM 40.7842 -77.0528 281° West 409 471 32,000  Level New York Center
09:47AM 40.8036 -77.1972 280° West 404 465 32,000  Level New York Center
09:48AM 40.8250 -77.3392 281° West 404 465 32,000  Level New York Center
09:49AM 40.8483 -77.4814 282° West 404 465 32,000  Level New York Center
09:51AM 40.8906 -77.8253 279° West 396 456 32,000  Level Cleveland Center
09:52AM 40.9108 -77.9703 281° West 401 461 32,000  Level Cleveland Center
09:53AM 40.9306 -78.1150 280° West 401 461 32,000  Level Cleveland Center
09:54AM 40.9500 -78.2464 281° West 409 471 32,000  Level Cleveland Center
09:55AM 40.9675 -78.3914 279° West 409 471 32,000  Level Cleveland Center
09:56AM 40.9850 -78.5367 279° West 409 471 32,000  Level Cleveland Center
09:57AM 41.0019 -78.6819 279° West 409 471 32,000  Level Cleveland Center
09:58AM 41.0189 -78.8272 279° West 404 465 32,000  Level Cleveland Center
09:59AM 41.0356 -78.9728 279° West 404 465 32,000  Level Cleveland Center
10:00AM 41.0522 -79.1156 279° West 409 471 32,000  Level Cleveland Center
10:01AM 41.0664 -79.2611 277° West 409 471 32,000  Level Cleveland Center
10:02AM 41.0847 -79.4014 280° West 404 465 32,000  Level Cleveland Center
10:03AM 41.1006 -79.5497 278° West 404 465 32,000  Level Cleveland Center
10:04AM 41.1164 -79.6928 278° West 404 465 32,000  Level Cleveland Center
10:05AM 41.1300 -79.8417 277° West 404 465 32,000 300 Level Cleveland Center
10:06AM 41.1456 -79.9847 278° West 404 465 32,600 600 Climbing Cleveland Center
10:07AM 41.1628 -80.1253 279° West 399 459 33,200 540 Climbing Cleveland Center
10:08AM 41.1778 -80.2686 278° West 399 459 33,700 360 Climbing Cleveland Center
10:09AM 41.1928 -80.4258 277° West 399 459 34,000 120 Climbing Cleveland Center
10:10AM 41.2094 -80.5750 278° West 404 465 34,000  Level Cleveland Center
10:11AM 41.2219 -80.7183 277° West 404 465 34,000  Level Cleveland Center
10:12AM 41.2364 -80.8647 278° West 404 465 34,000  Level Cleveland Center
10:13AM 41.2503 -81.0111 277° West 404 465 34,000  Level Cleveland Center
10:14AM 41.2625 -81.1383 277° West 403 464 34,000  Level Cleveland Center
10:15AM 41.2783 -81.2906 278° West 408 470 34,000  Level Cleveland Center
10:16AM 41.2939 -81.4344 278° West 408 470 34,000  Level Cleveland Center
10:17AM 41.3072 -81.5839 277° West 408 470 34,000  Level Cleveland Center
10:18AM 41.3225 -81.7306 278° West 408 470 34,000  Level Cleveland Center
10:19AM 41.3336 -81.8800 276° West 408 470 34,000  Level Cleveland Center
10:20AM 41.3483 -82.0269 278° West 408 470 34,000  Level Cleveland Center
10:21AM 41.3525 -82.1875 272° West 415 478 34,000  Level Cleveland Center
10:22AM 41.3336 -82.3308 260° West 415 478 34,000  Level Cleveland Center
10:23AM 41.3106 -82.4767 258° West 415 478 34,000  Level Cleveland Center
10:24AM 41.2892 -82.6281 259° West 415 478 34,000  Level Cleveland Center
10:25AM 41.2697 -82.7711 260° West 409 471 34,000  Level Cleveland Center
10:26AM 41.2461 -82.9167 258° West 409 471 34,000  Level Cleveland Center
10:27AM 41.2242 -83.0622 259° West 409 471 34,000  Level Cleveland Center
10:28AM 41.1997 -83.2242 259° West 409 471 34,000  Level Cleveland Center
10:29AM 41.1775 -83.3722 259° West 409 471 34,000  Level Cleveland Center
10:30AM 41.1572 -83.5178 260° West 409 471 34,000  Level Cleveland Center
10:31AM 41.1347 -83.6600 258° West 409 471 34,000  Level Cleveland Center
10:32AM 41.1097 -83.8050 257° West 409 471 34,000  Level Cleveland Center
10:33AM 41.0933 -83.9447 261° West 404 465 34,000  Level Cleveland Center
10:35AM 41.0489 -84.2178 258° West 392 451 34,000 -120 Level Chicago Center
10:36AM 41.0267 -84.3608 258° West 396 456 33,700 -600 Descending Chicago Center
10:37AM 41.0031 -84.5039 258° West 398 458 32,800 -960 Descending Chicago Center
10:38AM 40.9792 -84.6503 258° West 403 464 31,800 -1,740 Descending Chicago Center
10:39AM 40.9550 -84.7969 258° West 407 468 29,200 -1,860 Descending Chicago Center
10:40AM 40.9244 -84.9792 258° West 419 482 28,000 -600 Descending Chicago Center
10:41AM 40.8986 -85.1331 258° West 426 490 28,000  Level Chicago Center
10:43AM 40.8747 -85.2797 258° West 414 476 28,000  Level Chicago Center
10:44AM 40.8494 -85.4236 257° West 405 466 28,000  Level Chicago Center
10:45AM 40.8247 -85.5703 257° West 407 468 28,000  Level Chicago Center
10:46AM 40.7994 -85.7169 257° West 408 470 28,000  Level Chicago Center
10:47AM 40.7739 -85.8619 257° West 407 468 28,000  Level Chicago Center
10:48AM 40.7431 -86.0361 257° West 406 467 28,000  Level Chicago Center
10:49AM 40.7181 -86.1794 257° West 403 464 28,000  Level Chicago Center
10:50AM 40.6908 -86.3342 257° West 403 464 28,000  Level Chicago Center
10:51AM 40.6653 -86.4789 257° West 408 470 28,000  Level Chicago Center
10:52AM 40.6392 -86.6250 257° West 411 473 28,000  Level Chicago Center
10:53AM 40.6128 -86.7678 256° West 406 467 28,000  Level Chicago Center
10:54AM 40.5867 -86.9094 256° West 402 463 28,000  Level Chicago Center
10:55AM 40.5606 -87.0517 256° West 402 463 28,000 120 Level Chicago Center
10:56AM 40.5503 -87.2242 266° West 398 458 28,300 960 Climbing Chicago Center
10:57AM 40.5742 -87.3633 283° West 391 450 30,000 1,140 Climbing Chicago Center
10:58AM 40.5764 -87.5003 271° West 377 434 30,700 600 Climbing Chicago Center
10:59AM 40.5678 -87.6433 266° West 389 448 31,300 780 Climbing Chicago Center
11:00AM 40.5589 -87.7875 265° West 394 453 32,400 1,020 Climbing Chicago Center
11:01AM 40.5472 -87.9597 265° West 396 456 33,500 720 Climbing Chicago Center
11:02AM 40.5381 -88.1017 265° West 393 452 34,000 240 Climbing Chicago Center
11:03AM 40.5272 -88.2425 264° West 390 449 34,000  Level Chicago Center
11:04AM 40.5183 -88.3844 265° West 391 450 34,000  Level Chicago Center
11:05AM 40.5072 -88.5231 264° West 386 444 34,000  Level Chicago Center
11:06AM 40.4969 -88.6583 264° West 377 434 34,000  Level Chicago Center
11:07AM 40.4833 -88.8247 264° West 381 438 34,000  Level Chicago Center
11:08AM 40.4719 -88.9644 264° West 384 442 34,000  Level Chicago Center
11:09AM 40.4656 -89.1133 267° West 400 460 34,000  Level Chicago Center
11:10AM 40.4539 -89.2542 264° West 395 455 34,000  Level Chicago Center
11:11AM 40.4431 -89.3953 264° West 392 451 34,000  Level Chicago Center
11:12AM 40.4300 -89.5372 263° West 393 452 34,000  Level Chicago Center
11:13AM 40.4153 -89.7072 264° West 393 452 34,000  Level Chicago Center
11:15AM 40.4044 -89.8497 264° West 397 457 34,000  Level Chicago Center
11:16AM 40.3903 -89.9869 262° West 397 457 34,000  Level Chicago Center
11:17AM 40.3786 -90.1308 264° West 401 461 34,000  Level Chicago Center
11:18AM 40.3653 -90.2736 263° West 400 460 34,000  Level Chicago Center
11:19AM 40.3494 -90.4475 263° West 405 466 34,000  Level Chicago Center
11:20AM 40.3381 -90.5928 264° West 406 467 34,000  Level Chicago Center
11:21AM 40.3228 -90.7392 262° West 409 471 34,000  Level Chicago Center
11:22AM 40.3106 -90.8847 264° West 409 471 34,000  Level Chicago Center
11:23AM 40.2969 -91.0319 263° West 411 473 34,000  Level Chicago Center
11:24AM 40.2800 -91.2075 263° West 410 472 34,000  Level Chicago Center
11:25AM 40.2658 -91.3528 263° West 407 468 34,000  Level Chicago Center
11:26AM 40.2511 -91.4975 262° West 404 465 34,000  Level Chicago Center
11:27AM 40.2367 -91.6425 263° West 405 466 34,000  Level Chicago Center
11:28AM 40.2211 -91.7861 262° West 403 464 34,000  Level Chicago Center
11:29AM 40.2028 -91.9600 262° West 405 466 34,000  Level Chicago Center
11:30AM 40.1878 -92.1044 262° West 404 465 34,000  Level Chicago Center
11:31AM 40.1711 -92.2519 262° West 409 471 34,000  Level Chicago Center
11:32AM 40.1553 -92.3994 262° West 410 472 34,000  Level Chicago Center
11:33AM 40.1389 -92.5494 262° West 411 473 34,000  Level Chicago Center
11:34AM 40.1122 -92.6958 257° West 412 474 34,000  Level Chicago Center
11:36AM 40.0661 -92.9064 254° West 409 471 34,000  Level Kansas City Center
11:37AM 40.0322 -93.0642 254° West 408 470 34,000  Level Kansas City Center
11:38AM 40.0014 -93.2064 254° West 409 471 34,000  Level Kansas City Center
11:39AM 39.9700 -93.3494 254° West 412 474 34,000  Level Kansas City Center
11:40AM 39.9369 -93.4911 253° West 411 473 34,000  Level Kansas City Center
11:41AM 39.9053 -93.6347 254° West 414 476 34,000  Level Kansas City Center
11:42AM 39.8667 -93.8058 254° West 417 480 34,000  Level Kansas City Center
11:43AM 39.8344 -93.9489 254° West 416 479 34,000  Level Kansas City Center
11:44AM 39.8006 -94.0964 253° West 413 475 34,000  Level Kansas City Center
11:45AM 39.7689 -94.2336 253° West 414 476 34,000  Level Kansas City Center
11:46AM 39.7317 -94.3942 253° West 416 479 34,000  Level Kansas City Center
11:47AM 39.6997 -94.5322 253° West 418 481 34,000  Level Kansas City Center
11:48AM 39.6619 -94.6931 253° West 419 482 34,000  Level Kansas City Center
11:49AM 39.6292 -94.8308 253° West 419 482 34,000  Level Kansas City Center
11:50AM 39.5911 -94.9908 253° West 418 481 34,000  Level Kansas City Center
11:51AM 39.5583 -95.1272 253° West 417 480 34,000  Level Kansas City Center
11:52AM 39.5197 -95.2906 253° West 420 483 34,000  Level Kansas City Center
11:53AM 39.4828 -95.4350 252° West 424 488 34,000  Level Kansas City Center
11:54AM 39.4472 -95.5842 253° West 421 484 34,000  Level Kansas City Center
11:55AM 39.4133 -95.7225 252° West 423 487 34,000  Level Kansas City Center
11:56AM 39.3722 -95.8833 252° West 425 489 34,000  Level Kansas City Center
11:57AM 39.3386 -96.0206 252° West 421 484 34,000  Level Kansas City Center
11:58AM 39.2983 -96.1797 252° West 422 486 34,000  Level Kansas City Center
11:59AM 39.2586 -96.3364 252° West 422 486 34,000  Level Kansas City Center
12:00PM 39.2228 -96.4797 252° West 422 486 34,000  Level Kansas City Center
12:01PM 39.1861 -96.6181 251° West 426 490 34,000  Level Kansas City Center
12:02PM 39.1444 -96.7800 252° West 427 491 34,000  Level Kansas City Center
12:04PM 39.1086 -96.9189 252° West 427 491 34,000  Level Kansas City Center
12:05PM 39.0675 -97.0803 252° West 427 491 34,000  Level Kansas City Center
12:06PM 39.0325 -97.2178 252° West 424 488 34,000  Level Kansas City Center
12:07PM 38.9906 -97.3781 251° West 425 489 34,000  Level Kansas City Center
12:08PM 38.9528 -97.5147 250° West 425 489 34,000  Level Kansas City Center
12:09PM 38.9381 -97.6839 264° West 429 494 34,000  Level Kansas City Center
12:10PM 38.9228 -97.8269 262° West 424 488 34,000  Level Kansas City Center
12:11PM 38.9094 -97.9869 264° West 430 495 34,000  Level Kansas City Center
12:12PM 38.8964 -98.1383 264° West 429 494 34,000  Level Kansas City Center
12:13PM 38.8825 -98.2894 263° West 429 494 34,000  Level Kansas City Center
12:14PM 38.8694 -98.4417 264° West 431 496 34,000  Level Kansas City Center
12:15PM 38.8522 -98.6247 263° West 431 496 34,000  Level Kansas City Center
12:16PM 38.8317 -98.7758 260° West 432 497 34,000  Level Kansas City Center
12:17PM 38.8106 -98.9264 260° West 431 496 34,000  Level Kansas City Center
12:18PM 38.7914 -99.0778 261° West 431 496 34,000  Level Kansas City Center
12:19PM 38.7697 -99.2281 260° West 431 496 34,000  Level Kansas City Center
12:20PM 38.7506 -99.3786 261° West 429 494 34,000  Level Kansas City Center
12:21PM 38.7239 -99.5564 259° West 426 490 34,000  Level Kansas City Center
12:22PM 38.6911 -99.7047 254° West 424 488 34,000  Level Kansas City Center
12:23PM 38.6603 -99.8425 254° West 422 486 34,000  Level Kansas City Center
12:24PM 38.6258 -100.0047 255° West 423 487 34,000  Level Kansas City Center
12:25PM 38.5944 -100.1447 254° West 427 491 34,000  Level Kansas City Center
12:26PM 38.5325 -100.2958 242° Southwest 432 497 34,000  Level Kansas City Center
12:27PM 38.4792 -100.4278 243° Southwest 436 502 34,100  Climbing Kansas City Center
12:28PM 38.4161 -100.5792 242° Southwest 435 501 34,100 -60 Level Kansas City Center
12:29PM 38.3619 -100.7089 242° Southwest 435 501 34,000 -60 Descending Kansas City Center
12:30PM 38.2983 -100.8586 242° Southwest 433 498 34,000  Level Kansas City Center
12:31PM 38.2450 -100.9853 242° Southwest 429 494 34,000  Level Kansas City Center
12:32PM 38.1814 -101.1331 241° Southwest 428 493 34,000  Level Kansas City Center
12:33PM 38.1269 -101.2614 242° Southwest 431 496 34,000  Level Kansas City Center
12:35PM 38.0628 -101.4100 241° Southwest 432 497 34,000  Level Kansas City Center
12:36PM 38.0083 -101.5372 242° Southwest 431 496 34,000  Level Kansas City Center
12:37PM 37.9453 -101.6825 241° Southwest 426 490 34,000  Level Kansas City Center
12:38PM 37.8908 -101.8069 241° Southwest 424 488 34,000  Level Kansas City Center
12:39PM 37.8272 -101.9528 241° Southwest 425 489 34,000  Level Kansas City Center
12:40PM 37.7722 -102.0775 241° Southwest 425 489 34,000  Level Kansas City Center
12:41PM 37.7086 -102.2242 241° Southwest 426 490 34,000  Level Kansas City Center
12:42PM 37.6533 -102.3489 241° Southwest 426 490 34,000  Level Kansas City Center
12:43PM 37.5803 -102.5133 241° Southwest 423 487 34,000  Level Kansas City Center
12:44PM 37.5253 -102.6375 241° Southwest 423 487 34,000  Level Kansas City Center
12:45PM 37.4600 -102.7806 240° Southwest 422 486 34,000  Level Kansas City Center
12:46PM 37.4053 -102.9033 241° Southwest 422 486 34,000  Level Kansas City Center
12:47PM 37.3417 -103.0447 241° Southwest 418 481 34,000  Level Kansas City Center
12:48PM 37.2761 -103.1894 240° Southwest 417 480 34,000  Level Denver Center
12:50PM 37.2108 -103.3328 240° Southwest 420 483 34,000  Level Albuquerque Center
12:51PM 37.1444 -103.4767 240° Southwest 424 488 34,000  Level Albuquerque Center
12:52PM 37.0886 -103.5989 240° Southwest 422 486 34,000  Level Albuquerque Center
12:53PM 37.0228 -103.7406 240° Southwest 420 483 34,000  Level Albuquerque Center
12:54PM 36.9664 -103.8622 240° Southwest 420 483 34,000  Level Albuquerque Center
12:55PM 36.9014 -104.0039 240° Southwest 420 483 34,000  Level Albuquerque Center
12:56PM 36.8458 -104.1233 240° Southwest 417 480 34,000  Level Albuquerque Center
12:57PM 36.7889 -104.2436 239° Southwest 418 481 34,000  Level Albuquerque Center
12:58PM 36.7219 -104.3850 239° Southwest 423 487 34,000  Level Albuquerque Center
12:59PM 36.6650 -104.5058 240° Southwest 425 489 34,000  Level Albuquerque Center
01:00PM 36.6058 -104.6322 240° Southwest 423 487 34,000  Level Albuquerque Center
01:01PM 36.5447 -104.7847 244° Southwest 423 487 34,000  Level Albuquerque Center
01:02PM 36.5175 -104.9214 256° West 411 473 34,000  Level Albuquerque Center
01:03PM 36.4883 -105.0603 255° West 412 474 34,000  Level Albuquerque Center
01:04PM 36.4578 -105.2089 256° West 410 472 34,000  Level Albuquerque Center
01:05PM 36.4314 -105.3408 256° West 410 472 34,000  Level Albuquerque Center
01:06PM 36.4022 -105.4739 255° West 411 473 34,000  Level Albuquerque Center
01:07PM 36.3753 -105.6036 256° West 410 472 34,000 180 Level Albuquerque Center
01:08PM 36.3417 -105.7658 256° West 406 467 34,400 720 Climbing Albuquerque Center
01:09PM 36.3131 -105.9008 255° West 406 467 35,500 780 Climbing Albuquerque Center
01:10PM 36.2853 -106.0328 255° West 400 460 36,000 240 Climbing Albuquerque Center
01:11PM 36.2567 -106.1661 255° West 400 460 36,000 240 Level Albuquerque Center
01:12PM 36.2281 -106.2994 255° West 399 459 36,600 720 Climbing Albuquerque Center
01:13PM 36.1950 -106.4472 255° West 400 460 37,600 660 Climbing Albuquerque Center
01:14PM 36.1714 -106.5608 256° West 396 456 38,000 180 Climbing Albuquerque Center
01:15PM 36.1364 -106.7158 254° West 393 452 38,000  Level Albuquerque Center
01:16PM 36.1075 -106.8464 255° West 394 453 38,000  Level Albuquerque Center
01:17PM 36.0792 -106.9769 255° West 395 455 38,000  Level Albuquerque Center
01:18PM 36.0494 -107.1058 254° West 393 452 38,000  Level Albuquerque Center
01:19PM 36.0161 -107.2586 255° West 392 451 38,000  Level Albuquerque Center
01:20PM 35.9872 -107.3844 254° West 395 455 38,000  Level Albuquerque Center
01:21PM 35.9594 -107.5092 255° West 394 453 38,000  Level Albuquerque Center
01:23PM 35.9267 -107.6531 254° West 392 451 38,000  Level Albuquerque Center
01:24PM 35.8972 -107.7775 254° West 393 452 38,000  Level Albuquerque Center
01:25PM 35.8639 -107.9233 254° West 393 452 38,000  Level Albuquerque Center
01:26PM 35.8350 -108.0483 254° West 396 456 38,000  Level Albuquerque Center
01:27PM 35.8061 -108.1722 254° West 394 453 38,000  Level Albuquerque Center
01:28PM 35.7714 -108.3172 254° West 394 453 38,000  Level Albuquerque Center
01:29PM 35.7425 -108.4414 254° West 393 452 38,000  Level Albuquerque Center
01:30PM 35.7078 -108.5861 254° West 392 451 38,000  Level Albuquerque Center
01:31PM 35.6772 -108.7083 253° West 390 449 38,000  Level Albuquerque Center
01:32PM 35.6481 -108.8308 254° West 388 447 38,000  Level Albuquerque Center
01:33PM 35.6136 -108.9747 254° West 389 448 38,000  Level Albuquerque Center
01:34PM 35.5839 -109.0972 253° West 389 448 38,000  Level Albuquerque Center
01:35PM 35.5483 -109.2414 253° West 392 451 38,000  Level Albuquerque Center
01:36PM 35.5192 -109.3644 254° West 391 450 38,000  Level Albuquerque Center
01:37PM 35.4828 -109.5081 253° West 395 455 38,000  Level Albuquerque Center
01:38PM 35.4514 -109.6311 253° West 396 456 38,000  Level Albuquerque Center
01:39PM 35.4208 -109.7525 253° West 390 449 38,000  Level Albuquerque Center
01:40PM 35.3839 -109.8975 253° West 395 455 38,000  Level Albuquerque Center
01:41PM 35.3525 -110.0203 253° West 395 455 38,000  Level Albuquerque Center
01:42PM 35.3167 -110.1614 253° West 390 449 38,000  Level Albuquerque Center
01:43PM 35.2833 -110.2836 252° West 392 451 38,000 -180 Level Albuquerque Center
01:44PM 35.2517 -110.4075 253° West 397 457 37,700 -660 Descending Albuquerque Center
01:46PM 35.1822 -110.6750 252° West 399 459 36,000 -600 Descending Albuquerque Center
01:47PM 35.1433 -110.8236 252° West 408 470 36,000  Level Albuquerque Center
01:48PM 35.1108 -110.9508 253° West 409 471 36,000  Level Albuquerque Center
01:49PM 35.0778 -111.0961 255° West 409 471 36,000  Level Albuquerque Center
01:50PM 35.0389 -111.2347 251° West 411 473 36,000  Level Albuquerque Center
01:51PM 35.0047 -111.3622 252° West 401 461 36,000  Level Albuquerque Center
01:52PM 34.9708 -111.4917 252° West 403 464 36,000  Level Albuquerque Center
01:53PM 34.9361 -111.6217 252° West 404 465 36,000  Level Albuquerque Center
01:54PM 34.9031 -111.7417 251° West 400 460 36,000  Level Albuquerque Center
01:55PM 34.8614 -111.8989 252° West 406 467 36,000  Level Albuquerque Center
01:56PM 34.8264 -112.0278 252° West 403 464 36,000  Level Albuquerque Center
01:57PM 34.7906 -112.1564 251° West 403 464 36,000  Level Albuquerque Center
01:59PM 34.7550 -112.2858 252° West 403 464 36,000  Level Albuquerque Center
02:00PM 34.7197 -112.4144 252° West 403 464 36,000  Level Albuquerque Center
02:01PM 34.6853 -112.5422 252° West 401 461 36,000  Level Albuquerque Center
02:02PM 34.6447 -112.6975 252° West 402 463 36,000  Level Albuquerque Center
02:03PM 34.6114 -112.8264 253° West 401 461 36,000  Level Albuquerque Center
02:04PM 34.5769 -112.9542 252° West 401 461 36,000  Level Albuquerque Center
02:05PM 34.5425 -113.0828 252° West 401 461 36,000  Level Albuquerque Center
02:06PM 34.5078 -113.2106 252° West 401 461 36,000  Level Albuquerque Center
02:07PM 34.4728 -113.3383 252° West 401 461 36,000 -300 Level Albuquerque Center
02:08PM 34.4386 -113.4656 252° West 399 459 35,400 -780 Descending Albuquerque Center
02:09PM 34.4036 -113.5967 252° West 400 460 34,400 -720 Descending Albuquerque Center
02:10PM 34.3656 -113.7336 251° West 397 457 34,000 -240 Descending Albuquerque Center
02:11PM 34.3300 -113.8625 252° West 400 460 34,000  Level Albuquerque Center
02:12PM 34.2872 -114.0150 251° West 399 459 34,000  Level Albuquerque Center
02:13PM 34.2533 -114.1425 252° West 398 458 34,000 -1,320 Level Albuquerque Center
02:14PM 34.2167 -114.2700 251° West 400 460 31,300 -2,100 Descending Albuquerque Center
02:15PM 34.1817 -114.3983 252° West 402 463 29,700 -1,320 Descending Albuquerque Center
02:16PM 34.1525 -114.5056 252° West 413 475 28,900 -900 Descending Los Angeles Center
02:17PM 34.1147 -114.6383 251° West 418 481 28,000 -480 Descending Los Angeles Center
02:18PM 34.0544 -114.7911 245° Southwest 422 486 28,000  Level Los Angeles Center
02:19PM 33.9983 -114.9178 242° Southwest 427 491 28,000  Level Los Angeles Center
02:20PM 33.9431 -115.0425 242° Southwest 423 487 28,000  Level Los Angeles Center
02:21PM 33.8886 -115.1664 242° Southwest 420 483 28,000 -60 Level Los Angeles Center
02:22PM 33.8319 -115.2928 242° Southwest 428 493 27,900  Descending Los Angeles Center
02:23PM 33.7758 -115.4172 242° Southwest 426 490 28,000 -240 Climbing Los Angeles Center
02:24PM 33.7092 -115.5678 242° Southwest 428 493 27,500 -720 Descending Los Angeles Center
02:25PM 33.6533 -115.6914 242° Southwest 424 488 26,500 -1,020 Descending Los Angeles Center
02:26PM 33.5936 -115.8117 239° Southwest 421 484 25,500 -1,320 Descending Los Angeles Center
02:27PM 33.5256 -115.9264 235° Southwest 421 484 23,800 -900 Descending Los Angeles Center
02:28PM 33.4397 -116.0178 222° Southwest 416 479 23,700 -1,260 Descending Los Angeles Center
02:29PM 33.3336 -116.1231 220° Southwest 414 476 21,300 -2,640 Descending Los Angeles Center
02:30PM 33.2464 -116.2089 219° Southwest 409 471 18,300 -3,180 Descending Los Angeles Center
02:31PM 33.1594 -116.2933 219° Southwest 405 466 14,800 -3,060 Descending Los Angeles Center
02:32PM 33.0731 -116.3786 220° Southwest 405 466 12,100 -1,380 Descending Los Angeles Center
02:33PM 32.9864 -116.4544 216° Southwest 352 405 12,000 -600 Descending Los Angeles Center
02:34PM 32.9033 -116.4942 202° Southwest 323 372 10,900 -1,200 Descending Los Angeles Center
02:36PM 32.8225 -116.5319 201° Southwest 311 358 9,600 -1,380 Descending Los Angeles Center
02:37PM 32.7317 -116.5731 201° Southwest 301 346 7,900 -1,500 Descending Los Angeles Center
02:38PM 32.6958 -116.6450 239° Southwest 286 329 6,300 -1,020 Descending Los Angeles Center
02:39PM 32.6886 -116.7517 265° West 274 315 5,900 -480 Descending Los Angeles Center
02:40PM 32.6808 -116.8389 264° West 269 310 5,400 -1,020 Descending Los Angeles Center
02:41PM 32.6733 -116.9250 264° West 265 305 3,900 -1,260 Descending Los Angeles Center
02:42PM 32.6903 -117.0072 284° West 259 298 2,800 -960 Descending Los Angeles Center
02:43PM 32.7078 -117.0814 286° West 248 285 2,000 -960 Descending Los Angeles Center
02:44PM 32.7203 -117.1339 286° West 198 228 900 -1,080 Descending Los Angeles Center